Time;durP1;ratioP1;P1;durP2;ratioP2;P2;SDS_P1;SDS_P2;PMS_P1;PMS_P2;Temp;Humidity;BMP_temperature;BMP_pressure;BME280_temperature;BME280_humidity;BME280_pressure;Samples;Min_cycle;Max_cycle;Signal;HPM_P1;HPM_P2
2021/12/10 00:02:10;;;;;;;22.55;8.27;;;;;;;3.31;100.00;96706.50;4907409;29;20094;-57
2021/12/10 00:04:37;;;;;;;;;;;;;;;3.12;100.00;96706.25;4910003;29;20035;-57
2021/12/10 00:07:09;;;;;;;21.30;8.55;;;;;;;3.11;100.00;96702.00;4908426;29;19919;-57
2021/12/10 00:09:43;;;;;;;22.20;8.18;;;;;;;2.99;100.00;96692.06;4908298;29;20031;-56
2021/12/10 00:12:16;;;;;;;17.30;8.20;;;;;;;3.10;100.00;96692.56;4909035;28;20442;-55
2021/12/10 00:14:42;;;;;;;19.40;8.02;;;;;;;3.40;100.00;96684.72;4906464;29;20751;-55
2021/12/10 00:17:10;;;;;;;19.13;8.07;;;;;;;2.90;100.00;96680.31;4909220;28;20114;-56
2021/12/10 00:19:45;;;;;;;21.02;7.93;;;;;;;3.04;100.00;96674.75;4908632;29;20031;-56
2021/12/10 00:22:22;;;;;;;21.38;8.57;;;;;;;3.01;100.00;96672.25;4910079;28;20074;-54
2021/12/10 00:24:49;;;;;;;19.35;8.13;;;;;;;3.24;100.00;96674.94;4908172;29;20040;-55
2021/12/10 00:27:15;;;;;;;18.55;8.38;;;;;;;3.53;100.00;96670.53;4923262;28;20048;-55
2021/12/10 00:29:48;;;;;;;22.45;8.60;;;;;;;3.36;100.00;96668.50;4908562;29;20563;-56
2021/12/10 00:32:31;;;;;;;16.55;7.38;;;;;;;3.35;100.00;96661.69;4908139;28;20043;-55
2021/12/10 00:34:59;;;;;;;18.02;7.75;;;;;;;3.17;100.00;96663.13;4906991;29;20024;-55
2021/12/10 00:37:26;;;;;;;18.63;8.10;;;;;;;3.17;100.00;96655.41;4909126;29;20040;-55
2021/12/10 00:39:56;;;;;;;17.67;7.97;;;;;;;3.17;100.00;96655.41;4907923;29;20057;-55
2021/12/10 00:42:26;;;;;;;21.67;8.25;;;;;;;3.26;100.00;96647.38;4910224;28;20051;-55
2021/12/10 00:44:53;;;;;;;17.25;8.25;;;;;;;3.05;100.00;96642.94;4907570;29;20036;-54
2021/12/10 00:47:18;;;;;;;20.50;7.72;;;;;;;3.03;100.00;96639.56;4909741;29;20059;-55
2021/12/10 00:49:44;;;;;;;21.83;7.63;;;;;;;3.14;100.00;96634.88;4909580;29;20410;-54
2021/12/10 00:52:11;;;;;;;17.67;7.30;;;;;;;2.94;100.00;96634.72;4906642;29;20047;-55
2021/12/10 00:54:37;;;;;;;18.75;7.95;;;;;;;3.41;100.00;96622.81;4909686;29;20024;-56
2021/12/10 00:57:04;;;;;;;16.88;7.22;;;;;;;3.36;100.00;96631.59;4907753;28;20131;-55
2021/12/10 00:59:29;;;;;;;17.15;7.55;;;;;;;3.09;100.00;96624.75;4909012;29;20020;-54
2021/12/10 01:01:54;;;;;;;18.75;8.30;;;;;;;3.13;100.00;96622.09;4909104;29;20095;-54
2021/12/10 01:04:29;;;;;;;14.70;6.13;;;;;;;3.48;100.00;96615.72;4910605;29;20025;-56
2021/12/10 01:06:57;;;;;;;22.90;7.70;;;;;;;3.49;100.00;96612.22;4905174;28;20513;-55
2021/12/10 01:09:28;;;;;;;19.00;7.80;;;;;;;3.44;100.00;96616.72;4907963;29;20032;-56
2021/12/10 01:12:11;;;;;;;18.45;8.10;;;;;;;3.07;100.00;96616.25;4908769;29;20070;-55
2021/12/10 01:25:39;;;;;;;22.15;7.97;;;;;;;2.93;100.00;96586.69;4910146;28;20132;-55
2021/12/10 01:28:08;;;;;;;16.88;7.05;;;;;;;3.25;100.00;96583.00;4912362;29;20090;-57
2021/12/10 01:30:37;;;;;;;15.25;7.07;;;;;;;3.22;100.00;96578.81;4910603;28;20032;-54
2021/12/10 01:33:10;;;;;;;17.50;7.63;;;;;;;3.02;100.00;96574.34;4917454;29;20083;-55
2021/12/10 01:35:41;;;;;;;16.75;6.60;;;;;;;3.44;100.00;96568.59;4910783;28;20040;-56
2021/12/10 01:38:09;;;;;;;16.50;6.93;;;;;;;3.32;100.00;96558.72;4911725;29;20043;-55
2021/12/10 01:40:36;;;;;;;16.27;7.38;;;;;;;3.22;100.00;96555.63;4910374;28;20040;-54
2021/12/10 01:43:07;;;;;;;16.30;7.70;;;;;;;3.03;100.00;96563.16;4911460;29;20633;-55
2021/12/10 01:45:36;;;;;;;16.05;7.13;;;;;;;3.17;100.00;96552.34;4910308;29;20038;-56
2021/12/10 01:48:06;;;;;;;21.88;7.38;;;;;;;3.07;100.00;96553.59;4910259;29;20702;-55
2021/12/10 01:50:33;;;;;;;15.88;7.28;;;;;;;3.24;100.00;96545.25;4910067;29;20040;-54
2021/12/10 01:53:03;;;;;;;10.82;5.57;;;;;;;3.75;100.00;96546.00;4910731;29;20032;-55
2021/12/10 01:55:30;;;;;;;21.13;7.55;;;;;;;3.12;100.00;96535.38;4910439;28;20043;-59
2021/12/10 01:57:57;;;;;;;16.52;7.38;;;;;;;3.11;100.00;96529.41;4912019;29;20249;-55
2021/12/10 02:00:27;;;;;;;16.70;6.90;;;;;;;3.20;100.00;96523.09;4911894;29;20625;-55
2021/12/10 02:02:52;;;;;;;19.05;7.47;;;;;;;3.02;100.00;96524.56;4912396;29;20554;-56
2021/12/10 02:05:19;;;;;;;16.35;7.00;;;;;;;3.14;100.00;96513.81;4909757;29;20043;-58
2021/12/10 02:07:45;;;;;;;18.42;7.35;;;;;;;3.00;100.00;96510.91;4909530;29;20028;-55
2021/12/10 02:10:13;;;;;;;20.38;7.47;;;;;;;3.01;100.00;96510.81;4911438;28;20027;-56
2021/12/10 02:12:38;;;;;;;17.25;6.65;;;;;;;3.02;100.00;96509.94;4909168;29;20470;-56
2021/12/10 02:15:05;;;;;;;19.33;6.93;;;;;;;3.08;100.00;96502.00;4910058;29;20702;-56
2021/12/10 02:17:37;;;;;;;22.35;8.02;;;;;;;3.05;100.00;96496.09;4913371;29;20043;-57
2021/12/10 02:20:06;;;;;;;22.20;7.18;;;;;;;2.83;100.00;96496.00;4911124;29;20096;-55
2021/12/10 02:22:32;;;;;;;17.60;6.93;;;;;;;2.82;100.00;96491.75;4910344;29;20056;-55
2021/12/10 02:24:57;;;;;;;17.83;7.13;;;;;;;2.96;100.00;96488.69;4910101;29;20107;-55
2021/12/10 02:27:22;;;;;;;15.57;6.78;;;;;;;2.74;100.00;96483.44;4910715;29;20500;-55
2021/12/10 02:29:48;;;;;;;16.48;6.85;;;;;;;2.91;100.00;96480.31;4911932;29;20032;-55
2021/12/10 02:32:13;;;;;;;14.98;6.65;;;;;;;2.69;100.00;96470.75;4911059;29;20048;-54
2021/12/10 02:34:40;;;;;;;13.27;6.55;;;;;;;2.55;100.00;96467.78;4910913;29;20134;-57
2021/12/10 02:37:06;;;;;;;17.20;7.47;;;;;;;2.71;100.00;96463.81;4908612;28;20471;-56
2021/12/10 02:39:31;;;;;;;19.60;6.60;;;;;;;2.80;100.00;96458.34;4910936;29;20031;-56
2021/12/10 02:41:57;;;;;;;15.82;6.90;;;;;;;2.85;100.00;96450.47;4910646;29;20052;-55
2021/12/10 02:44:27;;;;;;;14.60;6.60;;;;;;;2.76;100.00;96450.75;4908946;29;20043;-55
2021/12/10 02:46:54;;;;;;;20.65;6.63;;;;;;;2.78;100.00;96447.25;4912771;29;20497;-55
2021/12/10 02:49:20;;;;;;;25.77;7.35;;;;;;;2.97;100.00;96433.72;4911661;29;20031;-56
2021/12/10 02:51:46;;;;;;;15.85;6.38;;;;;;;3.07;100.00;96435.09;4911132;28;20067;-55
2021/12/10 02:54:20;;;;;;;17.75;6.43;;;;;;;2.83;100.00;96427.34;4910505;29;20066;-55
2021/12/10 02:56:46;;;;;;;16.58;6.57;;;;;;;2.98;100.00;96427.66;4911516;28;20431;-56
2021/12/10 02:59:11;;;;;;;15.85;6.57;;;;;;;3.12;100.00;96433.16;4911954;29;20030;-55
2021/12/10 03:01:46;;;;;;;13.00;6.28;;;;;;;3.09;100.00;96428.16;4909877;28;20044;-56
2021/12/10 03:04:12;;;;;;;17.15;5.95;;;;;;;2.83;100.00;96426.47;4907785;29;20708;-55
2021/12/10 03:06:44;;;;;;;15.13;5.75;;;;;;;2.68;100.00;96422.72;4909463;28;20054;-56
2021/12/10 03:09:10;;;;;;;15.38;6.30;;;;;;;3.01;100.00;96419.84;4911671;29;20075;-55
2021/12/10 03:11:38;;;;;;;14.48;6.05;;;;;;;2.84;100.00;96429.00;4910394;28;20044;-55
2021/12/10 03:14:09;;;;;;;16.50;6.28;;;;;;;3.00;100.00;96420.75;4909151;29;20040;-56
2021/12/10 03:16:37;;;;;;;13.93;6.38;;;;;;;2.81;100.00;96423.13;4909082;28;20035;-55
2021/12/10 03:19:03;;;;;;;16.95;6.80;;;;;;;3.14;100.00;96412.50;4910838;29;20040;-56
2021/12/10 03:21:29;;;;;;;17.77;6.50;;;;;;;2.79;100.00;96409.47;4909129;28;20612;-56
2021/12/10 03:23:54;;;;;;;13.15;5.85;;;;;;;2.76;100.00;96414.72;4909624;29;20095;-57
2021/12/10 03:26:21;;;;;;;16.88;6.53;;;;;;;2.88;100.00;96404.81;4908998;29;20083;-55
2021/12/10 03:28:49;;;;;;;15.40;6.35;;;;;;;2.99;100.00;96403.59;4911328;29;20600;-57
2021/12/10 03:31:16;;;;;;;13.70;6.20;;;;;;;3.04;100.00;96399.13;4917193;29;20505;-55
2021/12/10 03:33:42;;;;;;;14.98;5.50;;;;;;;2.58;100.00;96398.22;4909286;29;20947;-55
2021/12/10 03:36:09;;;;;;;15.38;6.18;;;;;;;2.92;100.00;96391.84;4908995;29;20047;-56
2021/12/10 03:38:35;;;;;;;17.77;6.38;;;;;;;2.76;100.00;96389.84;4910535;29;20161;-55
2021/12/10 03:41:01;;;;;;;17.80;6.72;;;;;;;2.97;100.00;96387.38;4910451;29;20039;-56
2021/12/10 03:43:27;;;;;;;17.10;5.75;;;;;;;2.70;100.00;96379.72;4910257;29;20078;-56
2021/12/10 03:45:55;;;;;;;23.33;6.10;;;;;;;3.03;100.00;96390.56;4909264;29;20063;-56
2021/12/10 03:48:25;;;;;;;17.85;6.60;;;;;;;2.67;100.00;96377.28;4911096;29;20073;-55
2021/12/10 03:50:51;;;;;;;16.48;6.13;;;;;;;2.61;100.00;96380.06;4909485;28;20099;-57
2021/12/10 03:53:17;;;;;;;15.90;6.30;;;;;;;2.84;100.00;96374.09;4909119;29;20044;-55
2021/12/10 03:55:43;;;;;;;17.77;6.47;;;;;;;2.83;100.00;96370.69;4909065;29;20063;-55
2021/12/10 03:58:09;;;;;;;16.20;6.20;;;;;;;2.68;100.00;96361.78;4908906;29;20035;-55
2021/12/10 04:00:41;;;;;;;15.45;6.13;;;;;;;2.86;100.00;96360.25;4909208;28;20422;-56
2021/12/10 04:03:07;;;;;;;14.95;6.40;;;;;;;2.42;100.00;96354.13;4922830;29;20066;-55
2021/12/10 04:05:32;;;;;;;16.88;7.05;;;;;;;2.50;100.00;96345.25;4894683;29;20043;-55
2021/12/10 04:07:58;;;;;;;19.15;6.57;;;;;;;2.46;100.00;96351.41;4907653;29;20035;-56
2021/12/10 04:10:24;;;;;;;17.90;7.78;;;;;;;2.37;100.00;96346.59;4906295;29;20038;-56
2021/12/10 04:12:49;;;;;;;17.73;7.38;;;;;;;2.45;100.00;96344.56;4908999;29;20024;-59
2021/12/10 04:15:20;;;;;;;18.80;7.78;;;;;;;2.49;100.00;96340.16;4910204;28;20020;-56
2021/12/10 04:17:48;;;;;;;17.08;7.43;;;;;;;2.67;100.00;96333.53;4909397;29;20418;-55
2021/12/10 04:20:13;;;;;;;21.85;9.32;;;;;;;2.07;100.00;96339.00;4907952;29;20028;-56
2021/12/10 04:22:39;;;;;;;20.77;8.60;;;;;;;2.26;100.00;96338.38;4911022;29;20429;-56
2021/12/10 04:25:07;;;;;;;21.15;7.97;;;;;;;2.32;100.00;96333.03;4909199;28;20028;-56
2021/12/10 04:27:33;;;;;;;24.77;10.70;;;;;;;2.12;100.00;96337.13;4912814;29;20035;-57
2021/12/10 04:29:59;;;;;;;17.35;8.45;;;;;;;2.09;100.00;96331.25;4907038;29;20036;-56
2021/12/10 04:32:26;;;;;;;21.10;9.48;;;;;;;2.20;100.00;96329.16;4907308;28;20372;-55
2021/12/10 04:34:53;;;;;;;19.60;9.15;;;;;;;2.14;100.00;96329.38;4908420;29;20042;-55
2021/12/10 04:37:19;;;;;;;22.40;9.00;;;;;;;2.08;100.00;96327.84;4907214;28;20068;-55
2021/12/10 04:39:47;;;;;;;20.42;9.07;;;;;;;2.11;100.00;96316.59;4909038;29;20780;-55
2021/12/10 04:42:19;;;;;;;23.85;9.15;;;;;;;2.00;100.00;96316.13;4908042;28;20462;-55
2021/12/10 04:44:45;;;;;;;20.77;8.68;;;;;;;2.35;100.00;96314.91;4907503;29;20039;-56
2021/12/10 04:47:10;;;;;;;20.35;8.70;;;;;;;2.38;100.00;96306.25;4908506;29;20052;-57
2021/12/10 04:49:36;;;;;;;21.83;8.57;;;;;;;2.36;100.00;96310.63;4907460;29;20096;-55
2021/12/10 04:52:04;;;;;;;22.08;9.25;;;;;;;2.22;100.00;96311.09;4907605;29;20127;-56
2021/12/10 04:54:29;;;;;;;19.33;9.00;;;;;;;2.49;100.00;96309.28;4907725;29;20023;-57
2021/12/10 04:56:58;;;;;;;20.63;8.88;;;;;;;2.41;100.00;96303.56;4907770;28;20405;-55
2021/12/10 04:59:27;;;;;;;19.10;7.72;;;;;;;2.47;100.00;96291.31;4908588;29;20941;-57
2021/12/10 05:01:55;;;;;;;26.58;9.88;;;;;;;2.54;100.00;96291.09;4909957;29;20028;-56
2021/12/10 05:04:21;;;;;;;23.13;8.70;;;;;;;2.48;100.00;96297.31;4911672;29;20130;-55
2021/12/10 05:06:46;;;;;;;22.30;9.32;;;;;;;2.38;100.00;96286.50;4910653;29;20126;-56
2021/12/10 05:09:13;;;;;;;20.02;8.65;;;;;;;2.56;100.00;96286.75;4912045;29;20088;-55
2021/12/10 05:11:40;;;;;;;21.80;9.07;;;;;;;2.57;100.00;96288.41;4914395;28;20813;-56
2021/12/10 05:14:06;;;;;;;23.58;11.07;;;;;;;2.34;100.00;96284.94;4913351;29;20036;-56
2021/12/10 05:16:33;;;;;;;24.17;9.45;;;;;;;2.54;100.00;96275.66;4911231;28;20040;-56
2021/12/10 05:19:00;;;;;;;23.55;9.82;;;;;;;2.49;100.00;96279.22;4911828;29;20036;-55
2021/12/10 05:21:29;;;;;;;24.48;10.00;;;;;;;2.55;100.00;96279.91;4912595;28;20048;-55
2021/12/10 05:23:55;;;;;;;23.45;9.60;;;;;;;2.71;100.00;96273.31;4913057;29;20047;-56
2021/12/10 05:26:21;;;;;;;22.98;9.38;;;;;;;2.63;100.00;96275.34;4909581;29;20047;-55
2021/12/10 05:28:47;;;;;;;25.52;10.18;;;;;;;2.68;100.00;96266.53;4912516;29;20099;-56
2021/12/10 05:31:13;;;;;;;24.02;10.40;;;;;;;2.45;100.00;96261.41;4910858;29;20040;-56
2021/12/10 05:33:39;;;;;;;21.92;10.10;;;;;;;2.19;100.00;96263.19;4916500;29;20434;-57
2021/12/10 05:36:07;;;;;;;25.38;10.65;;;;;;;2.46;100.00;96252.78;4910836;29;20209;-56
2021/12/10 05:38:33;;;;;;;24.48;10.95;;;;;;;2.34;100.00;96254.06;4909263;29;20038;-56
2021/12/10 05:41:02;;;;;;;28.58;11.73;;;;;;;2.28;100.00;96249.16;4907832;29;20040;-56
2021/12/10 05:43:27;;;;;;;21.88;11.00;;;;;;;2.56;100.00;96237.84;4908234;29;20242;-57
2021/12/10 05:45:53;;;;;;;24.65;11.40;;;;;;;2.24;100.00;96237.28;4910119;28;20792;-56
2021/12/10 05:48:20;;;;;;;28.17;12.13;;;;;;;2.25;100.00;96233.81;4910642;29;20044;-55
2021/12/10 05:50:46;;;;;;;17.48;8.15;;;;;;;2.19;100.00;96224.59;4909758;28;20040;-55
2021/12/10 05:53:12;;;;;;;34.53;12.65;;;;;;;2.06;100.00;96225.91;4907934;29;20084;-55
2021/12/10 05:55:41;;;;;;;30.23;12.90;;;;;;;1.95;100.00;96231.47;4908044;28;20040;-58
2021/12/10 05:58:07;;;;;;;31.00;11.93;;;;;;;1.72;100.00;96230.50;4911985;29;20028;-56
2021/12/10 06:00:37;;;;;;;22.73;10.38;;;;;;;1.90;100.00;96230.78;4910938;28;20074;-57
2021/12/10 06:03:05;;;;;;;29.00;12.10;;;;;;;1.61;100.00;96245.44;4909772;29;20039;-55
2021/12/10 06:05:32;;;;;;;31.40;12.02;;;;;;;1.84;100.00;96229.25;4919239;29;20046;-57
2021/12/10 06:07:58;;;;;;;24.65;12.13;;;;;;;1.64;100.00;96237.66;4914952;29;20027;-58
2021/12/10 06:10:24;;;;;;;30.08;11.95;;;;;;;1.86;100.00;96226.63;4921022;28;20706;-56
2021/12/10 06:12:51;;;;;;;26.95;11.95;;;;;;;1.84;100.00;96218.97;4912173;29;20568;-56
2021/12/10 06:15:19;;;;;;;25.35;11.52;;;;;;;1.84;100.00;96218.13;4914453;28;20024;-55
2021/12/10 06:17:46;;;;;;;28.90;11.10;;;;;;;1.87;100.00;96215.44;4910946;29;20590;-56
2021/12/10 06:20:14;;;;;;;29.55;11.18;;;;;;;1.44;100.00;96207.47;4910111;28;20032;-56
2021/12/10 06:22:41;;;;;;;29.02;12.32;;;;;;;1.44;100.00;96209.22;4914077;29;20052;-57
2021/12/10 06:25:07;;;;;;;32.58;12.73;;;;;;;1.42;100.00;96205.88;4873759;29;1101481;-57
2021/12/10 06:27:33;;;;;;;20.92;9.02;;;;;;;1.16;100.00;96194.72;4914926;29;20522;-55
2021/12/10 06:30:01;;;;;;;37.40;13.85;;;;;;;1.17;100.00;96188.69;4914830;29;20494;-60
2021/12/10 06:32:27;;;;;;;43.80;17.35;;;;;;;0.62;100.00;96193.00;4912878;29;20424;-58
2021/12/10 06:34:52;;;;;;;34.92;13.32;;;;;;;0.96;100.00;96188.50;4916246;29;20695;-57
2021/12/10 06:37:17;;;;;;;42.78;13.38;;;;;;;1.13;100.00;96187.09;4921445;29;20130;-57
2021/12/10 06:39:43;;;;;;;41.78;14.00;;;;;;;0.99;100.00;96181.56;4921160;29;20613;-56
2021/12/10 06:42:08;;;;;;;42.15;12.55;;;;;;;1.13;100.00;96174.28;4913251;28;20040;-58
2021/12/10 06:44:34;;;;;;;33.30;13.25;;;;;;;1.39;100.00;96172.56;4914258;29;20024;-56
2021/12/10 06:46:59;;;;;;;26.83;8.43;;;;;;;1.77;100.00;96172.97;4912513;28;20047;-56
2021/12/10 06:49:25;;;;;;;24.33;9.88;;;;;;;1.31;100.00;96168.53;4912860;29;20040;-56
2021/12/10 06:51:50;;;;;;;33.42;14.30;;;;;;;1.22;100.00;96166.25;4912283;29;20118;-56
2021/12/10 06:54:17;;;;;;;35.00;12.93;;;;;;;1.63;100.00;96168.31;4913761;29;20080;-57
2021/12/10 06:56:42;;;;;;;35.08;12.95;;;;;;;1.76;100.00;96168.72;4911997;28;20048;-58
2021/12/10 06:59:09;;;;;;;36.63;14.98;;;;;;;1.37;100.00;96156.38;4914484;29;20028;-57
2021/12/10 07:01:38;;;;;;;31.67;12.75;;;;;;;1.25;100.00;96150.75;4911402;29;20040;-57
2021/12/10 07:04:09;;;;;;;34.67;14.75;;;;;;;1.44;100.00;96148.41;4914513;29;20027;-56
2021/12/10 07:06:37;;;;;;;30.33;13.05;;;;;;;1.58;100.00;96157.34;4914481;28;20043;-57
2021/12/10 07:09:07;;;;;;;43.33;12.52;;;;;;;1.79;100.00;96150.63;4914515;29;20031;-56
2021/12/10 07:11:33;;;;;;;32.35;13.77;;;;;;;1.72;100.00;96142.28;4912304;28;21039;-56
2021/12/10 07:13:58;;;;;;;30.20;13.60;;;;;;;1.90;100.00;96151.06;4912440;29;20679;-57
2021/12/10 07:16:26;;;;;;;34.60;12.82;;;;;;;1.87;100.00;96140.91;4913063;29;20473;-57
2021/12/10 07:18:54;;;;;;;32.78;15.20;;;;;;;1.70;100.00;96144.91;4913575;29;20030;-59
2021/12/10 07:21:19;;;;;;;36.75;14.55;;;;;;;2.17;100.00;96133.81;4912030;29;20102;-55
2021/12/10 07:23:45;;;;;;;35.08;15.15;;;;;;;2.12;100.00;96136.53;4911049;29;20085;-55
2021/12/10 07:26:12;;;;;;;31.95;12.98;;;;;;;2.42;100.00;96130.28;4911451;28;20131;-55
2021/12/10 07:28:37;;;;;;;34.63;14.90;;;;;;;2.09;100.00;96126.34;4912157;29;20039;-55
2021/12/10 07:31:04;;;;;;;36.05;15.60;;;;;;;2.40;100.00;96124.34;4913533;28;20062;-57
2021/12/10 07:33:29;;;;;;;36.33;15.00;;;;;;;2.60;100.00;96121.00;4912518;29;20059;-56
2021/12/10 07:35:55;;;;;;;36.55;14.80;;;;;;;2.69;100.00;96116.31;4919973;29;20138;-55
2021/12/10 07:38:21;;;;;;;35.25;15.65;;;;;;;2.69;100.00;96120.66;4913507;29;20071;-56
2021/12/10 07:40:47;;;;;;;36.20;14.70;;;;;;;2.85;100.00;96116.56;4913425;28;20038;-57
2021/12/10 07:43:13;;;;;;;33.90;13.73;;;;;;;2.94;100.00;96122.22;4912904;29;20027;-56
2021/12/10 07:45:42;;;;;;;33.80;14.13;;;;;;;2.97;100.00;96119.53;4914258;28;20048;-57
2021/12/10 07:48:09;;;;;;;35.75;14.85;;;;;;;2.79;100.00;96111.63;4913721;29;20036;-56
2021/12/10 07:50:42;;;;;;;29.90;13.25;;;;;;;3.15;100.00;96103.31;4915739;29;20044;-57
2021/12/10 07:53:08;;;;;;;33.75;11.00;;;;;;;3.33;100.00;96095.69;4911739;29;20020;-59
2021/12/10 07:55:36;;;;;;;33.58;13.65;;;;;;;2.89;100.00;96110.38;4911896;28;20110;-57
2021/12/10 07:58:05;;;;;;;26.85;11.18;;;;;;;3.08;100.00;96105.31;4909993;29;20031;-57
2021/12/10 08:00:33;;;;;;;26.70;12.02;;;;;;;2.92;100.00;96104.25;4913085;28;20098;-56
2021/12/10 08:02:59;;;;;;;26.30;12.48;;;;;;;3.15;100.00;96103.31;4913519;29;20035;-57
2021/12/10 08:05:25;;;;;;;24.98;10.20;;;;;;;3.34;100.00;96097.38;4912832;29;20035;-56
2021/12/10 08:07:53;;;;;;;29.10;12.35;;;;;;;3.26;100.00;96095.97;4914619;29;20513;-56
2021/12/10 08:10:19;;;;;;;20.25;9.25;;;;;;;3.48;100.00;96090.75;4913631;29;20059;-55
2021/12/10 08:12:44;;;;;;;23.48;12.20;;;;;;;3.28;100.00;96094.16;4912408;29;20062;-57
2021/12/10 08:15:11;;;;;;;20.02;9.63;;;;;;;3.48;100.00;96090.75;4910569;29;20106;-56
2021/12/10 08:17:37;;;;;;;43.55;9.82;;;;;;;4.01;100.00;96086.69;4914339;29;20030;-56
2021/12/10 08:20:07;;;;;;;19.63;9.63;;;;;;;3.22;100.00;96086.72;4913181;29;20028;-58
2021/12/10 08:22:33;;;;;;;13.75;7.45;;;;;;;2.42;100.00;96082.22;4912433;29;20052;-55
2021/12/10 08:24:59;;;;;;;28.33;11.50;;;;;;;1.98;100.00;96084.78;4912574;29;20114;-56
2021/12/10 08:27:24;;;;;;;19.00;8.55;;;;;;;1.90;100.00;96085.06;4913701;28;20036;-56
2021/12/10 08:29:49;;;;;;;22.60;9.68;;;;;;;1.92;100.00;96082.44;4913965;29;20115;-55
2021/12/10 08:32:20;;;;;;;24.98;12.02;;;;;;;1.55;100.00;96078.66;4910119;28;20441;-55
2021/12/10 08:34:46;;;;;;;28.30;12.10;;;;;;;1.84;100.00;96074.16;4909489;29;20111;-55
2021/12/10 08:37:12;;;;;;;28.52;12.85;;;;;;;1.63;100.00;96075.81;4911319;29;20044;-55
2021/12/10 08:39:38;;;;;;;28.25;11.07;;;;;;;1.86;100.00;96067.25;4911541;29;20459;-55
2021/12/10 08:42:04;;;;;;;22.45;10.02;;;;;;;2.11;100.00;96057.72;4913385;29;20044;-56
2021/12/10 08:44:30;;;;;;;27.88;12.35;;;;;;;1.93;100.00;96063.56;4911842;29;20602;-56
2021/12/10 08:46:56;;;;;;;23.27;10.48;;;;;;;2.34;100.00;96062.88;4911769;29;20682;-56
2021/12/10 08:49:22;;;;;;;20.67;9.10;;;;;;;1.97;100.00;96059.97;4911649;29;20561;-55
2021/12/10 08:51:53;;;;;;;21.42;9.82;;;;;;;2.07;100.00;96051.00;4912348;28;20086;-56
2021/12/10 08:54:25;;;;;;;23.10;8.85;;;;;;;1.88;100.00;96052.59;4912316;29;20544;-57
2021/12/10 08:56:51;;;;;;;20.90;9.43;;;;;;;1.51;100.00;96046.25;4911157;29;20604;-55
2021/12/10 08:59:16;;;;;;;24.50;10.27;;;;;;;1.62;100.00;96051.84;4911827;29;20028;-55
2021/12/10 09:01:45;;;;;;;21.55;9.25;;;;;;;1.71;100.00;96037.81;4915038;28;21102;-56
2021/12/10 09:04:12;;;;;;;21.85;11.82;;;;;;;1.65;100.00;96041.44;4910228;29;20486;-56
2021/12/10 09:06:45;;;;;;;22.20;10.02;;;;;;;2.27;100.00;96036.53;4911358;29;20043;-57
2021/12/10 09:09:13;;;;;;;21.73;8.88;;;;;;;2.07;100.00;96035.56;4918730;29;20132;-56
2021/12/10 09:11:41;;;;;;;22.30;9.90;;;;;;;2.69;100.00;96035.72;4910513;29;20043;-55
2021/12/10 09:14:08;;;;;;;22.48;10.32;;;;;;;2.31;100.00;96038.91;4911201;29;20599;-55
2021/12/10 09:16:36;;;;;;;19.65;10.23;;;;;;;2.43;100.00;96032.47;4911301;29;20093;-55
2021/12/10 09:19:05;;;;;;;23.90;10.38;;;;;;;2.13;100.00;96029.34;4912073;29;20549;-55
2021/12/10 09:21:33;;;;;;;21.02;10.07;;;;;;;2.62;100.00;96026.56;4912293;28;20048;-57
2021/12/10 09:24:04;;;;;;;18.48;9.68;;;;;;;2.41;100.00;96007.66;4911940;29;20035;-56
2021/12/10 09:26:33;;;;;;;24.35;10.25;;;;;;;2.30;100.00;96015.84;4913185;29;20028;-56
2021/12/10 09:29:00;;;;;;;17.83;8.63;;;;;;;2.20;100.00;96009.38;4911832;29;20043;-56
2021/12/10 09:31:26;;;;;;;19.98;10.40;;;;;;;2.52;100.00;96002.94;4912389;29;20099;-55
2021/12/10 09:33:55;;;;;;;23.40;9.18;;;;;;;2.60;100.00;96002.63;4912387;29;20502;-55
2021/12/10 09:36:20;;;;;;;21.20;10.23;;;;;;;2.84;100.00;95996.44;4926889;28;20461;-56
2021/12/10 09:38:46;;;;;;;21.45;9.10;;;;;;;2.62;100.00;96000.81;4924648;28;20612;-55
2021/12/10 09:41:11;;;;;;;22.55;9.20;;;;;;;2.88;100.00;96002.28;4911501;28;20102;-55
2021/12/10 09:43:40;;;;;;;19.88;7.63;;;;;;;2.39;100.00;95997.47;4911032;29;20118;-56
2021/12/10 09:46:07;;;;;;;15.75;8.40;;;;;;;2.58;100.00;95996.72;4911723;29;20028;-56
2021/12/10 09:48:33;;;;;;;19.27;8.48;;;;;;;2.72;100.00;95991.81;4914818;29;20110;-56
2021/12/10 09:51:05;;;;;;;17.60;8.77;;;;;;;2.79;100.00;95993.22;4913932;28;20132;-55
2021/12/10 09:53:33;;;;;;;;;;;;;;;3.02;100.00;95979.38;4915009;29;20035;-55
2021/12/10 09:56:00;;;;;;;18.38;10.18;;;;;;;2.43;100.00;95975.84;4916162;29;19919;-56
2021/12/10 09:58:26;;;;;;;24.10;9.60;;;;;;;2.36;100.00;95974.44;4915497;29;20032;-56
2021/12/10 10:00:55;;;;;;;19.83;8.52;;;;;;;3.08;100.00;95960.25;4916432;29;20040;-57
2021/12/10 10:03:24;;;;;;;16.58;6.88;;;;;;;2.71;99.79;95954.09;4913964;29;20024;-56
2021/12/10 10:05:50;;;;;;;17.23;7.93;;;;;;;2.58;100.00;95958.09;4913833;28;20036;-55
2021/12/10 10:08:21;;;;;;;17.23;7.80;;;;;;;2.85;100.00;95945.81;4913695;29;20039;-57
2021/12/10 10:10:50;;;;;;;17.67;8.98;;;;;;;2.96;98.89;95946.16;4913036;29;20032;-55
2021/12/10 10:13:19;;;;;;;17.75;8.32;;;;;;;3.13;97.49;95937.69;4917503;29;20146;-55
2021/12/10 10:15:46;;;;;;;15.23;8.32;;;;;;;2.69;98.57;95935.31;4914580;29;20034;-56
2021/12/10 10:18:13;;;;;;;16.83;7.80;;;;;;;2.70;97.83;95927.53;4914173;29;20039;-55
2021/12/10 10:20:45;;;;;;;16.05;8.38;;;;;;;2.65;98.26;95926.06;4912927;29;20040;-55
2021/12/10 10:23:11;;;;;;;;;;;;;;;2.75;99.96;95914.44;4914677;29;20033;-55
2021/12/10 10:25:40;;;;;;;15.70;6.97;;;;;;;2.67;99.53;95917.38;4912991;29;19958;-55
2021/12/10 10:28:10;;;;;;;18.90;8.45;;;;;;;2.74;97.27;95912.78;4914790;29;20090;-57
2021/12/10 10:30:40;;;;;;;15.98;7.35;;;;;;;2.66;98.81;95904.56;4912075;29;20032;-55
2021/12/10 10:33:09;;;;;;;16.35;7.47;;;;;;;2.72;99.13;95900.88;4912411;29;20028;-54
2021/12/10 10:35:48;;;;;;;17.42;7.05;;;;;;;2.84;98.54;95893.44;4912198;29;20033;-54
2021/12/10 10:38:18;;;;;;;14.70;7.95;;;;;;;2.78;97.96;95883.44;4911581;29;20036;-54
2021/12/10 10:41:01;;;;;;;14.25;6.18;;;;;;;2.64;99.98;95878.88;4912260;28;20132;-57
2021/12/10 10:43:29;;;;;;;16.55;7.13;;;;;;;3.11;97.76;95875.13;4912178;29;20032;-55
2021/12/10 10:45:56;;;;;;;12.00;5.63;;;;;;;2.74;97.68;95871.59;4912236;28;20098;-56
2021/12/10 10:48:22;;;;;;;13.20;6.10;;;;;;;2.53;98.57;95862.25;4914318;29;20036;-55
2021/12/10 10:50:56;;;;;;;14.95;6.70;;;;;;;2.50;97.81;95858.09;4913997;29;20040;-55
2021/12/10 10:53:33;;;;;;;10.95;6.28;;;;;;;2.67;95.85;95868.47;4913053;29;20596;-56
2021/12/10 10:55:58;;;;;;;12.93;5.70;;;;;;;3.07;94.19;95871.00;4912536;28;20053;-56
2021/12/10 10:58:26;;;;;;;12.52;4.85;;;;;;;2.91;94.02;95867.47;4913394;29;20410;-57
2021/12/10 11:01:28;;;;;;;14.93;5.40;;;;;;;2.96;93.93;95865.50;4911125;29;20052;-56
2021/12/10 11:03:59;;;;;;;15.52;5.50;;;;;;;3.09;94.23;95864.06;4915177;29;20036;-58
2021/12/10 11:06:28;;;;;;;11.80;5.32;;;;;;;2.81;94.11;95862.72;4912240;28;20494;-56
2021/12/10 11:09:05;;;;;;;12.82;5.55;;;;;;;2.63;94.37;95858.38;4913271;29;20063;-56
2021/12/10 11:11:35;;;;;;;11.48;6.15;;;;;;;2.77;92.51;95874.03;4913068;29;20046;-56
2021/12/10 11:14:23;;;;;;;15.50;5.80;;;;;;;2.64;94.45;95871.16;4913130;29;20040;-56
2021/12/10 11:16:51;;;;;;;19.55;5.45;;;;;;;2.82;94.16;95879.00;4914127;28;20039;-56
2021/12/10 11:19:20;;;;;;;11.50;4.78;;;;;;;2.89;93.31;95876.06;4911765;29;20032;-55
2021/12/10 11:21:56;;;;;;;11.88;4.65;;;;;;;2.92;93.51;95869.13;4911717;28;20742;-56
2021/12/10 11:24:37;;;;;;;9.65;4.65;;;;;;;2.98;93.37;95874.84;4915744;29;20051;-56
2021/12/10 11:27:09;;;;;;;11.60;4.80;;;;;;;3.25;94.31;95879.63;4914762;29;20733;-57
2021/12/10 11:29:37;;;;;;;12.93;4.93;;;;;;;3.42;93.83;95878.88;4913262;29;20031;-55
2021/12/10 11:32:26;;;;;;;13.55;5.00;;;;;;;3.50;92.04;95881.09;4910965;28;20066;-55
2021/12/10 11:34:59;;;;;;;10.82;4.25;;;;;;;3.36;93.55;95876.56;4911649;29;20036;-56
2021/12/10 11:37:40;;;;;;;9.90;4.47;;;;;;;3.37;94.67;95883.41;4911559;29;20047;-57
2021/12/10 11:40:23;;;;;;;10.57;4.73;;;;;;;3.55;92.52;95879.97;4914029;29;20045;-55